createdAt,value
2018-11-23T00:00:44.070Z,29.10
2018-11-23T00:03:18.150Z,29.10
2018-11-23T00:05:52.401Z,29.20
2018-11-23T00:08:26.943Z,29.20
2018-11-23T00:11:00.668Z,29.20
2018-11-23T00:13:34.980Z,29.30
2018-11-23T00:16:09.165Z,29.30
2018-11-23T00:18:44.112Z,29.30
2018-11-23T00:21:18.277Z,29.40
2018-11-23T00:23:54.280Z,29.40
2018-11-23T00:26:28.075Z,29.40
2018-11-23T00:29:32.761Z,29.40
2018-11-23T00:32:06.579Z,29.50
2018-11-23T00:34:40.499Z,29.50
2018-11-23T00:37:14.624Z,29.50
2018-11-23T00:39:48.409Z,29.50
2018-11-23T00:42:22.480Z,29.50
2018-11-23T00:44:56.498Z,29.60
2018-11-23T00:47:30.535Z,29.60
2018-11-23T00:50:05.104Z,29.70
2018-11-23T00:52:39.128Z,29.70
2018-11-23T00:55:14.380Z,29.80
2018-11-23T00:57:49.147Z,29.90
2018-11-23T01:00:28.758Z,29.90
2018-11-23T01:03:03.803Z,30.00
2018-11-23T01:05:37.953Z,30.10
2018-11-23T01:08:25.992Z,30.20
2018-11-23T01:11:00.747Z,30.20
2018-11-23T01:13:34.979Z,30.30
2018-11-23T01:16:09.053Z,30.30
2018-11-23T01:18:42.928Z,30.40
2018-11-23T01:21:18.392Z,30.50
2018-11-23T01:23:52.559Z,30.50
2018-11-23T01:26:27.823Z,30.60
2018-11-23T01:29:01.599Z,30.60
2018-11-23T01:31:35.816Z,30.60
2018-11-23T01:34:11.045Z,30.60
2018-11-23T01:36:45.243Z,30.60
2018-11-23T01:39:19.368Z,30.70
2018-11-23T01:41:53.500Z,30.70
2018-11-23T01:44:27.547Z,30.70
2018-11-23T01:47:10.954Z,30.80
2018-11-23T01:49:44.907Z,30.80
2018-11-23T01:52:18.843Z,30.80
2018-11-23T01:54:52.928Z,30.90
2018-11-23T01:57:26.987Z,30.90
2018-11-23T02:00:31.878Z,31.00
2018-11-23T02:03:05.927Z,31.10
2018-11-23T02:05:40.676Z,31.10
2018-11-23T02:08:14.591Z,31.20
2018-11-23T02:10:48.686Z,31.10
2018-11-23T02:13:22.662Z,31.20
2018-11-23T02:15:56.755Z,31.30
2018-11-23T02:18:31.277Z,31.30
2018-11-23T02:21:05.020Z,31.30
2018-11-23T02:23:39.005Z,31.40
2018-11-23T02:26:13.279Z,31.40
2018-11-23T02:28:49.014Z,31.50
2018-11-23T02:31:28.060Z,31.50
2018-11-23T02:34:01.734Z,31.50
2018-11-23T02:36:40.201Z,31.60
2018-11-23T02:39:17.934Z,31.60
2018-11-23T02:41:54.921Z,31.70
2018-11-23T02:44:35.838Z,31.80
2018-11-23T02:47:14.658Z,31.80
2018-11-23T02:49:53.975Z,31.80
2018-11-23T02:52:32.781Z,31.90
2018-11-23T02:55:10.635Z,31.90
2018-11-23T02:57:52.896Z,32.00
2018-11-23T03:00:38.210Z,32.00
2018-11-23T03:03:18.462Z,32.10
2018-11-23T03:06:01.762Z,32.20
2018-11-23T03:08:39.021Z,32.30
2018-11-23T03:11:19.736Z,32.40
2018-11-23T03:13:58.441Z,32.40
2018-11-23T03:16:32.060Z,32.50
2018-11-23T03:19:06.627Z,32.60
2018-11-23T03:21:40.784Z,32.60
2018-11-23T03:24:15.241Z,32.70
2018-11-23T03:26:48.909Z,32.70
2018-11-23T03:29:23.302Z,32.80
2018-11-23T03:31:58.675Z,32.90
2018-11-23T03:34:33.693Z,32.90
2018-11-23T03:37:08.295Z,33.00
2018-11-23T03:39:42.150Z,33.00
2018-11-23T03:42:16.217Z,33.10
2018-11-23T03:44:49.849Z,33.10
2018-11-23T03:47:24.140Z,33.20
2018-11-23T03:49:58.193Z,33.30
2018-11-23T03:52:32.494Z,33.30
2018-11-23T03:55:06.282Z,33.30
2018-11-23T03:57:45.302Z,33.30
2018-11-23T04:00:24.328Z,33.40
2018-11-23T04:02:58.031Z,33.40
2018-11-23T04:05:32.644Z,33.50
2018-11-23T04:08:07.048Z,33.50
2018-11-23T04:10:40.742Z,33.60
2018-11-23T04:13:14.901Z,33.70
2018-11-23T04:15:49.067Z,33.70
2018-11-23T04:18:23.577Z,33.70
2018-11-23T04:21:02.711Z,33.80
2018-11-23T04:23:37.129Z,33.90
2018-11-23T04:26:11.425Z,34.00
2018-11-23T04:28:46.024Z,34.00
2018-11-23T04:31:19.794Z,34.10
2018-11-23T04:33:55.533Z,34.20
2018-11-23T04:36:29.754Z,34.20
2018-11-23T04:39:03.951Z,34.20
2018-11-23T04:41:38.152Z,34.30
2018-11-23T04:44:12.350Z,34.30
2018-11-23T04:46:46.720Z,34.40
2018-11-23T04:49:20.524Z,34.40
2018-11-23T04:51:54.985Z,34.40
2018-11-23T04:54:29.046Z,34.40
2018-11-23T04:57:03.523Z,34.40
2018-11-23T04:59:37.465Z,34.40
2018-11-23T05:02:11.432Z,34.40
2018-11-23T05:04:45.908Z,34.50
2018-11-23T05:07:19.846Z,34.50
2018-11-23T05:09:54.221Z,34.50
2018-11-23T05:12:28.299Z,34.50
2018-11-23T05:15:03.470Z,34.50
2018-11-23T05:17:37.643Z,34.50
2018-11-23T05:20:12.715Z,34.50
2018-11-23T05:22:46.720Z,34.50
2018-11-23T05:25:21.838Z,34.50
2018-11-23T05:28:00.427Z,34.40
2018-11-23T05:30:35.192Z,34.40
2018-11-23T05:33:09.317Z,34.40
2018-11-23T05:35:43.798Z,34.40
2018-11-23T05:38:18.711Z,34.40
2018-11-23T05:40:56.112Z,34.50
2018-11-23T05:43:31.246Z,34.50
2018-11-23T05:46:05.211Z,34.60
2018-11-23T05:48:39.288Z,34.60
2018-11-23T05:51:13.762Z,34.70
2018-11-23T05:53:47.781Z,34.60
2018-11-23T05:56:21.755Z,34.70
2018-11-23T05:58:56.501Z,34.70
2018-11-23T06:01:30.456Z,34.70
2018-11-23T06:04:04.706Z,34.80
2018-11-23T06:06:42.472Z,34.80
2018-11-23T06:09:13.506Z,34.80
2018-11-23T06:11:47.733Z,34.80
2018-11-23T06:14:21.486Z,34.80
2018-11-23T06:16:55.781Z,34.90
2018-11-23T06:19:29.777Z,34.80
2018-11-23T06:22:05.157Z,34.90
2018-11-23T06:24:45.463Z,35.00
2018-11-23T06:27:19.932Z,35.00
2018-11-23T06:29:53.652Z,35.00
2018-11-23T06:32:36.578Z,35.10
2018-11-23T06:35:10.668Z,35.10
2018-11-23T06:37:45.581Z,35.10
2018-11-23T06:40:19.957Z,35.10
2018-11-23T06:42:54.084Z,35.20
2018-11-23T06:45:27.904Z,35.20
2018-11-23T06:48:01.492Z,35.20
2018-11-23T06:50:35.311Z,35.20
2018-11-23T06:53:10.117Z,35.20
2018-11-23T06:55:44.237Z,35.20
2018-11-23T06:58:18.593Z,35.20
2018-11-23T07:00:52.339Z,35.20
2018-11-23T07:03:26.508Z,35.10
2018-11-23T07:06:01.358Z,35.00
2018-11-23T07:08:35.437Z,35.00
2018-11-23T07:11:09.525Z,35.00
2018-11-23T07:13:43.594Z,35.00
2018-11-23T07:16:17.898Z,35.00
2018-11-23T07:18:52.276Z,35.00
2018-11-23T07:24:17.941Z,35.00
2018-11-23T07:26:52.079Z,34.90
2018-11-23T07:29:25.987Z,34.90
2018-11-23T07:31:59.934Z,34.90
2018-11-23T07:34:33.803Z,34.90
2018-11-23T07:37:07.566Z,34.90
2018-11-23T07:39:52.321Z,34.90
2018-11-23T07:42:27.883Z,35.00
2018-11-23T07:45:01.725Z,35.00
2018-11-23T07:47:35.710Z,35.00
2018-11-23T07:50:10.969Z,35.00
2018-11-23T07:52:45.033Z,35.00
2018-11-23T07:55:18.957Z,35.00
2018-11-23T07:57:53.065Z,35.00
2018-11-23T08:00:28.056Z,35.00
2018-11-23T08:03:02.271Z,35.00
2018-11-23T08:05:36.069Z,34.90
2018-11-23T08:08:10.655Z,34.90
2018-11-23T08:10:42.955Z,34.90
2018-11-23T08:13:19.206Z,34.90
2018-11-23T08:15:53.151Z,34.90
2018-11-23T08:18:26.843Z,34.90
2018-11-23T08:21:00.529Z,34.90
2018-11-23T08:23:37.422Z,34.90
2018-11-23T08:26:42.158Z,35.00
2018-11-23T08:29:46.786Z,35.00
2018-11-23T08:32:20.960Z,35.00
2018-11-23T08:34:55.044Z,35.00
2018-11-23T08:37:29.384Z,34.90
2018-11-23T08:40:03.566Z,34.90
2018-11-23T08:42:37.920Z,34.90
2018-11-23T08:45:14.826Z,34.90
2018-11-23T08:47:49.039Z,34.90
2018-11-23T08:50:32.670Z,34.90
2018-11-23T08:53:06.296Z,34.80
2018-11-23T08:55:39.837Z,34.80
2018-11-23T08:58:13.955Z,34.80
2018-11-23T09:00:48.185Z,34.80
2018-11-23T09:03:22.626Z,34.80
2018-11-23T09:05:59.133Z,34.80
2018-11-23T09:08:35.517Z,34.90
2018-11-23T09:11:09.990Z,34.80
2018-11-23T09:13:44.403Z,34.80
2018-11-23T09:16:19.294Z,34.80
2018-11-23T09:18:54.767Z,34.80
2018-11-23T09:21:28.528Z,34.80
2018-11-23T09:24:02.295Z,34.80
2018-11-23T09:26:36.449Z,34.80
2018-11-23T09:29:10.475Z,34.80
2018-11-23T09:31:45.269Z,34.80
2018-11-23T09:34:19.452Z,34.80
2018-11-23T09:36:53.954Z,34.90
2018-11-23T09:39:27.628Z,34.90
2018-11-23T09:42:01.455Z,34.90
2018-11-23T09:44:35.872Z,34.90
2018-11-23T09:47:10.169Z,34.90
2018-11-23T09:49:44.378Z,34.90
2018-11-23T09:52:18.341Z,34.90
2018-11-23T09:54:52.087Z,34.90
2018-11-23T09:57:26.196Z,34.80
2018-11-23T09:59:59.771Z,34.90
2018-11-23T10:02:34.964Z,34.80
2018-11-23T10:05:10.023Z,34.80
2018-11-23T10:07:44.542Z,34.80
2018-11-23T10:10:25.268Z,34.80
2018-11-23T10:13:02.823Z,34.80
2018-11-23T10:15:37.355Z,34.70
2018-11-23T10:18:10.905Z,34.70
2018-11-23T10:20:45.043Z,34.70
2018-11-23T10:23:19.209Z,34.70
2018-11-23T10:25:52.970Z,34.70
2018-11-23T10:28:27.019Z,34.60
2018-11-23T10:31:00.994Z,34.60
2018-11-23T10:33:34.843Z,34.60
2018-11-23T10:36:09.746Z,34.50
2018-11-23T10:38:43.922Z,34.50
2018-11-23T10:41:30.876Z,34.60
2018-11-23T10:44:04.519Z,34.50
2018-11-23T10:49:13.817Z,34.40
2018-11-23T10:51:47.754Z,34.30
2018-11-23T10:54:22.623Z,34.30
2018-11-23T10:56:56.657Z,34.30
2018-11-23T10:59:30.821Z,34.20
2018-11-23T11:02:04.974Z,34.20
2018-11-23T11:04:44.648Z,34.20
2018-11-23T11:07:28.978Z,34.10
2018-11-23T11:10:02.876Z,34.10
2018-11-23T11:12:40.278Z,34.10
2018-11-23T11:15:18.109Z,34.00
2018-11-23T11:18:03.494Z,34.00
2018-11-23T11:20:39.283Z,33.90
2018-11-23T11:23:13.568Z,33.90
2018-11-23T11:25:47.689Z,33.80
2018-11-23T11:28:21.614Z,33.80
2018-11-23T11:30:56.704Z,33.70
2018-11-23T11:33:29.895Z,33.70
2018-11-23T11:36:04.240Z,33.70
2018-11-23T11:38:38.026Z,33.80
2018-11-23T11:41:13.024Z,33.70
2018-11-23T11:43:46.760Z,33.70
2018-11-23T11:46:23.019Z,33.70
2018-11-23T11:48:57.938Z,33.70
2018-11-23T11:51:31.788Z,33.70
2018-11-23T11:54:06.782Z,33.60
2018-11-23T11:56:40.902Z,33.60
2018-11-23T11:59:14.974Z,33.60
2018-11-23T12:01:48.963Z,33.60
2018-11-23T12:04:23.197Z,33.60
2018-11-23T12:06:58.730Z,33.60
2018-11-23T12:09:32.913Z,33.60
2018-11-23T12:12:06.787Z,33.60
2018-11-23T12:14:41.347Z,33.60
2018-11-23T12:17:15.337Z,33.50
2018-11-23T12:19:49.373Z,33.50
2018-11-23T12:22:23.093Z,33.50
2018-11-23T12:24:57.452Z,33.50
2018-11-23T12:27:31.424Z,33.50
2018-11-23T12:30:05.406Z,33.50
2018-11-23T12:32:39.426Z,33.40
2018-11-23T12:35:14.597Z,33.40
2018-11-23T12:37:48.271Z,33.40
2018-11-23T12:40:24.061Z,33.40
2018-11-23T12:42:58.068Z,33.40
2018-11-23T12:45:31.884Z,33.30
2018-11-23T12:48:06.016Z,33.40
2018-11-23T12:50:40.993Z,33.40
2018-11-23T12:53:15.072Z,33.40
2018-11-23T12:55:48.899Z,33.30
2018-11-23T12:58:23.616Z,33.30
2018-11-23T13:00:57.396Z,33.30
2018-11-23T13:03:31.422Z,33.30
2018-11-23T13:06:05.124Z,33.30
2018-11-23T13:08:39.592Z,33.30
2018-11-23T13:11:12.098Z,33.30
2018-11-23T13:13:46.500Z,33.20
2018-11-23T13:16:21.050Z,33.20
2018-11-23T13:18:55.382Z,33.20
2018-11-23T13:21:29.528Z,33.20
2018-11-23T13:24:04.169Z,33.20
2018-11-23T13:26:38.251Z,33.20
2018-11-23T13:29:16.161Z,33.10
2018-11-23T13:31:47.006Z,33.10
2018-11-23T13:34:22.717Z,33.10
2018-11-23T13:36:56.965Z,33.10
2018-11-23T13:39:31.210Z,33.00
2018-11-23T13:42:05.418Z,33.00
2018-11-23T13:44:39.902Z,33.00
2018-11-23T13:47:13.920Z,33.00
2018-11-23T13:49:47.938Z,32.90
2018-11-23T13:52:22.545Z,33.00
2018-11-23T13:54:57.405Z,32.90
2018-11-23T13:57:31.366Z,32.90
2018-11-23T14:00:06.071Z,32.90
2018-11-23T14:02:40.015Z,32.90
2018-11-23T14:05:16.509Z,32.80
2018-11-23T14:07:52.916Z,32.80
2018-11-23T14:10:27.810Z,32.80
2018-11-23T14:13:02.339Z,32.70
2018-11-23T14:15:37.576Z,32.70
2018-11-23T14:18:16.414Z,32.70
2018-11-23T14:21:21.230Z,32.60
2018-11-23T14:23:55.241Z,32.60
2018-11-23T14:26:29.739Z,32.60
2018-11-23T14:29:03.473Z,32.50
2018-11-23T14:31:37.776Z,32.50
2018-11-23T14:34:11.550Z,32.50
2018-11-23T14:36:45.453Z,32.50
2018-11-23T14:39:19.390Z,32.50
2018-11-23T14:41:53.431Z,32.40
2018-11-23T14:44:28.436Z,32.40
2018-11-23T14:47:02.245Z,32.40
2018-11-23T14:49:36.224Z,32.40
2018-11-23T14:52:09.560Z,32.40
2018-11-23T14:54:44.860Z,32.40
2018-11-23T14:57:18.743Z,32.40
2018-11-23T14:59:52.812Z,32.30
2018-11-23T15:02:26.833Z,32.30
2018-11-23T15:05:00.257Z,32.30
2018-11-23T15:07:34.418Z,32.30
2018-11-23T15:10:09.655Z,32.30
2018-11-23T15:12:43.511Z,32.20
2018-11-23T15:15:23.095Z,32.30
2018-11-23T15:17:57.402Z,32.20
2018-11-23T15:20:35.813Z,32.20
2018-11-23T15:23:13.220Z,32.20
2018-11-23T15:25:47.324Z,32.10
2018-11-23T15:28:20.980Z,32.10
2018-11-23T15:30:54.594Z,32.00
2018-11-23T15:33:28.517Z,32.00
2018-11-23T15:36:02.560Z,32.00
2018-11-23T15:38:36.580Z,32.00
2018-11-23T15:41:11.651Z,32.00
2018-11-23T15:43:45.397Z,32.00
2018-11-23T15:46:19.312Z,31.90
2018-11-23T15:48:53.369Z,31.90
2018-11-23T15:51:27.269Z,31.90
2018-11-23T15:54:01.221Z,31.90
2018-11-23T15:56:36.799Z,31.80
2018-11-23T15:59:10.942Z,31.80
2018-11-23T16:01:44.658Z,31.80
2018-11-23T16:04:19.071Z,31.80
2018-11-23T16:06:52.796Z,31.80
2018-11-23T16:09:26.787Z,31.70
2018-11-23T16:12:00.646Z,31.80
2018-11-23T16:14:34.647Z,31.70
2018-11-23T16:17:08.668Z,31.70
2018-11-23T16:19:42.598Z,31.70
2018-11-23T16:22:16.556Z,31.70
2018-11-23T16:24:50.557Z,31.70
2018-11-23T16:27:24.744Z,31.60
2018-11-23T16:29:58.360Z,31.70
2018-11-23T16:32:32.319Z,31.60
2018-11-23T16:35:05.871Z,31.60
2018-11-23T16:37:40.688Z,31.60
2018-11-23T16:40:16.550Z,31.60
2018-11-23T16:42:50.261Z,31.60
2018-11-23T16:45:26.527Z,31.50
2018-11-23T16:48:01.147Z,31.50
2018-11-23T16:50:40.846Z,31.50
2018-11-23T16:53:14.830Z,31.40
2018-11-23T16:55:49.743Z,31.40
2018-11-23T16:58:39.879Z,31.40
2018-11-23T17:01:19.637Z,31.30
2018-11-23T17:04:12.122Z,31.30
2018-11-23T17:06:45.875Z,31.30
2018-11-23T17:09:19.821Z,31.30
2018-11-23T17:11:57.758Z,31.30
2018-11-23T17:14:31.609Z,31.30
2018-11-23T17:17:05.566Z,31.20
2018-11-23T17:19:39.874Z,31.20
2018-11-23T17:22:14.920Z,31.20
2018-11-23T17:24:48.861Z,31.20
2018-11-23T17:27:23.351Z,31.10
2018-11-23T17:29:58.194Z,31.10
2018-11-23T17:32:32.298Z,31.00
2018-11-23T17:35:06.466Z,31.00
2018-11-23T17:37:41.520Z,31.00
2018-11-23T17:40:17.187Z,31.00
2018-11-23T17:42:51.354Z,30.90
2018-11-23T17:45:27.409Z,30.90
2018-11-23T17:48:00.983Z,30.90
2018-11-23T17:50:36.134Z,30.90
2018-11-23T17:53:10.711Z,30.90
2018-11-23T17:55:44.652Z,30.90
2018-11-23T17:58:18.640Z,30.90
2018-11-23T18:00:53.483Z,30.80
2018-11-23T18:03:27.706Z,30.80
2018-11-23T18:06:03.809Z,30.90
2018-11-23T18:08:39.068Z,30.80
2018-11-23T18:11:11.362Z,30.80
2018-11-23T18:13:45.438Z,30.90
2018-11-23T18:16:19.506Z,30.90
2018-11-23T18:18:53.289Z,30.80
2018-11-23T18:21:26.962Z,30.90
2018-11-23T18:24:01.522Z,30.80
2018-11-23T18:26:35.630Z,30.80
2018-11-23T18:29:09.668Z,30.80
2018-11-23T18:31:43.791Z,30.80
2018-11-23T18:34:17.700Z,30.80
2018-11-23T18:36:51.794Z,30.90
2018-11-23T18:39:25.724Z,30.80
2018-11-23T18:42:00.154Z,30.80
2018-11-23T18:44:34.136Z,30.90
2018-11-23T18:47:07.715Z,30.80
2018-11-23T18:49:41.783Z,30.80
2018-11-23T18:52:15.491Z,30.90
2018-11-23T18:54:49.513Z,30.90
2018-11-23T18:57:23.705Z,30.80
2018-11-23T18:59:57.439Z,30.80
2018-11-23T19:02:33.646Z,30.70
2018-11-23T19:05:07.678Z,30.80
2018-11-23T19:07:50.568Z,30.70
2018-11-23T19:10:24.665Z,30.70
2018-11-23T19:12:58.536Z,30.60
2018-11-23T19:15:32.184Z,30.60
2018-11-23T19:18:05.792Z,30.60
2018-11-23T19:20:40.159Z,30.60
2018-11-23T19:23:14.029Z,30.50
2018-11-23T19:25:48.529Z,30.50
2018-11-23T19:28:22.795Z,30.50
2018-11-23T19:30:56.406Z,30.50
2018-11-23T19:33:30.477Z,30.40
2018-11-23T19:36:04.286Z,30.40
2018-11-23T19:38:38.389Z,30.40
2018-11-23T19:41:12.354Z,30.40
2018-11-23T19:43:46.234Z,30.30
2018-11-23T19:46:20.343Z,30.30
2018-11-23T19:48:54.336Z,30.30
2018-11-23T19:51:27.953Z,30.30
2018-11-23T19:54:01.755Z,30.30
2018-11-23T19:56:35.307Z,30.20
2018-11-23T19:59:09.426Z,30.20
2018-11-23T20:01:43.140Z,30.20
2018-11-23T20:04:18.524Z,30.20
2018-11-23T20:06:52.718Z,30.20
2018-11-23T20:09:27.571Z,30.10
2018-11-23T20:12:00.983Z,30.10
2018-11-23T20:14:34.774Z,30.20
2018-11-23T20:17:10.091Z,30.10
2018-11-23T20:19:43.923Z,30.10
2018-11-23T20:22:18.048Z,30.10
2018-11-23T20:24:51.957Z,30.00
2018-11-23T20:27:26.729Z,30.00
2018-11-23T20:30:00.607Z,30.00
2018-11-23T20:32:34.607Z,30.00
2018-11-23T20:35:09.036Z,29.90
2018-11-23T20:37:43.115Z,29.90
2018-11-23T20:40:22.567Z,29.90
2018-11-23T20:42:56.887Z,29.90
2018-11-23T20:45:32.362Z,29.90
2018-11-23T20:48:06.753Z,29.90
2018-11-23T20:50:40.970Z,29.90
2018-11-23T20:53:15.060Z,29.90
2018-11-23T20:55:49.204Z,29.90
2018-11-23T20:58:23.731Z,29.90
2018-11-23T21:00:57.752Z,29.90
2018-11-23T21:03:31.884Z,29.90
2018-11-23T21:06:07.303Z,29.90
2018-11-23T21:08:41.413Z,29.90
2018-11-23T21:11:15.140Z,29.90
2018-11-23T21:13:49.093Z,29.90
2018-11-23T21:16:23.331Z,29.90
2018-11-23T21:18:56.875Z,29.90
2018-11-23T21:21:30.909Z,29.90
2018-11-23T21:24:05.002Z,29.90
2018-11-23T21:26:39.953Z,29.90
2018-11-23T21:29:15.047Z,29.90
2018-11-23T21:31:49.027Z,29.80
2018-11-23T21:34:22.611Z,29.80
2018-11-23T21:36:56.888Z,29.80
2018-11-23T21:39:31.164Z,29.70
2018-11-23T21:42:05.305Z,29.70
2018-11-23T21:44:39.687Z,29.70
2018-11-23T21:47:16.606Z,29.70
2018-11-23T21:49:51.157Z,29.70
2018-11-23T21:52:25.261Z,29.70
2018-11-23T21:55:06.272Z,29.60
2018-11-23T21:57:42.539Z,29.60
2018-11-23T22:00:20.364Z,29.60
2018-11-23T22:02:56.003Z,29.60
2018-11-23T22:05:29.820Z,29.60
2018-11-23T22:08:06.146Z,29.60
2018-11-23T22:10:40.617Z,29.50
2018-11-23T22:13:14.893Z,29.60
2018-11-23T22:15:49.648Z,29.60
2018-11-23T22:18:24.297Z,29.50
2018-11-23T22:20:59.277Z,29.50
2018-11-23T22:23:33.210Z,29.50
2018-11-23T22:26:07.242Z,29.50
2018-11-23T22:28:41.385Z,29.50
2018-11-23T22:31:15.901Z,29.50
2018-11-23T22:33:58.070Z,29.50
2018-11-23T22:36:35.672Z,29.40
2018-11-23T22:39:12.356Z,29.50
2018-11-23T22:41:46.261Z,29.40
2018-11-23T22:44:20.241Z,29.40
2018-11-23T22:46:54.430Z,29.40
2018-11-23T22:49:29.201Z,29.40
2018-11-23T22:52:02.982Z,29.40
2018-11-23T22:54:38.261Z,29.40
2018-11-23T22:57:15.820Z,29.40
2018-11-23T22:59:49.632Z,29.40
2018-11-23T23:02:27.789Z,29.40
2018-11-23T23:05:02.159Z,29.30
2018-11-23T23:07:36.529Z,29.30
2018-11-23T23:10:11.463Z,29.30
2018-11-23T23:12:45.623Z,29.20
2018-11-23T23:15:19.193Z,29.20
2018-11-23T23:17:53.573Z,29.20
2018-11-23T23:20:28.077Z,29.10
2018-11-23T23:23:02.342Z,29.10
2018-11-23T23:25:36.027Z,29.10
2018-11-23T23:28:10.052Z,29.10
2018-11-23T23:30:44.005Z,29.00
2018-11-23T23:33:18.272Z,29.00
2018-11-23T23:35:52.326Z,29.00
2018-11-23T23:38:27.024Z,28.90
2018-11-23T23:41:00.663Z,29.00
2018-11-23T23:43:34.939Z,28.90
2018-11-23T23:46:09.005Z,28.90
2018-11-23T23:48:42.876Z,28.90
2018-11-23T23:51:16.552Z,28.90
2018-11-23T23:53:50.313Z,28.90
2018-11-23T23:56:24.139Z,28.90
2018-11-23T23:58:57.681Z,28.90
